Time;durP1;ratioP1;P1;durP2;ratioP2;P2;SDS_P1;SDS_P2;PMS_P1;PMS_P2;Temp;Humidity;BMP_temperature;BMP_pressure;BME280_temperature;BME280_humidity;BME280_pressure;Samples;Min_cycle;Max_cycle;Signal;HPM_P1;HPM_P2
2021/10/29 00:01:46;;;;;;;51.90;22.77;;;7.40;99.90;;;;;;5094177;28;20059;-62
2021/10/29 00:04:12;;;;;;;40.17;20.50;;;7.30;99.90;;;;;;5093836;28;20024;-62
2021/10/29 00:06:37;;;;;;;46.77;21.30;;;7.30;99.90;;;;;;5092174;28;20115;-62
2021/10/29 00:09:03;;;;;;;38.47;22.13;;;7.30;99.90;;;;;;5093911;28;20529;-62
2021/10/29 00:11:29;;;;;;;40.30;23.17;;;7.40;99.90;;;;;;5092333;28;20490;-62
2021/10/29 00:13:54;;;;;;;45.67;22.47;;;7.40;99.90;;;;;;5093693;28;20255;-63
2021/10/29 00:16:20;;;;;;;37.23;21.30;;;7.70;99.90;;;;;;5093880;28;20257;-63
2021/10/29 00:18:46;;;;;;;36.63;22.43;;;7.80;99.90;;;;;;5093384;28;20478;-63
2021/10/29 00:21:11;;;;;;;41.20;22.57;;;7.80;99.90;;;;;;5093628;28;20016;-63
2021/10/29 00:23:37;;;;;;;86.53;22.33;;;7.80;99.90;;;;;;5093425;28;20063;-62
2021/10/29 00:26:03;;;;;;;37.77;21.90;;;7.70;99.90;;;;;;5093081;28;20028;-62
2021/10/29 00:28:29;;;;;;;39.70;20.67;;;7.70;99.90;;;;;;5093659;28;20024;-63
2021/10/29 00:30:54;;;;;;;68.45;20.70;;;7.60;99.90;;;;;;5093000;28;20282;-62
2021/10/29 00:33:20;;;;;;;36.03;19.90;;;7.60;99.90;;;;;;5091793;28;20405;-61
2021/10/29 00:35:46;;;;;;;42.17;19.50;;;7.50;99.90;;;;;;5093067;28;20443;-62
2021/10/29 00:38:12;;;;;;;49.60;20.38;;;7.40;99.90;;;;;;5091737;28;20020;-63
2021/10/29 00:40:39;;;;;;;134.40;22.70;;;7.40;99.90;;;;;;5092867;28;20020;-63
2021/10/29 00:43:10;;;;;;;45.67;19.58;;;7.40;99.90;;;;;;5093146;28;20020;-63
2021/10/29 00:45:36;;;;;;;85.63;20.58;;;7.20;99.90;;;;;;5091760;28;20107;-63
2021/10/29 00:48:02;;;;;;;56.13;20.48;;;7.10;99.90;;;;;;5092866;28;20127;-62
2021/10/29 00:50:28;;;;;;;27.83;17.55;;;7.10;99.90;;;;;;5092782;28;20028;-63
2021/10/29 00:52:55;;;;;;;34.40;18.67;;;7.10;99.90;;;;;;5093031;28;20024;-63
2021/10/29 00:55:22;;;;;;;37.65;18.63;;;7.10;99.90;;;;;;5095684;28;20490;-63
2021/10/29 00:57:50;;;;;;;32.40;18.48;;;7.20;99.90;;;;;;5096903;28;20023;-63
2021/10/29 01:00:17;;;;;;;62.83;17.45;;;7.40;99.90;;;;;;5097166;28;20482;-62
2021/10/29 01:02:42;;;;;;;31.23;18.38;;;7.60;99.90;;;;;;5096827;28;20106;-62
2021/10/29 01:05:08;;;;;;;55.37;19.23;;;7.70;99.90;;;;;;5096017;28;20119;-63
2021/10/29 01:07:35;;;;;;;56.45;19.55;;;7.70;99.90;;;;;;5095955;28;20051;-61
2021/10/29 01:10:01;;;;;;;48.03;20.30;;;7.60;99.90;;;;;;5097045;28;20040;-63
2021/10/29 01:12:26;;;;;;;36.80;19.00;;;7.40;99.90;;;;;;5096818;28;20386;-64
2021/10/29 01:14:57;;;;;;;48.97;20.50;;;7.30;99.90;;;;;;5096881;28;20036;-62
2021/10/29 01:17:23;;;;;;;110.80;22.13;;;7.20;99.90;;;;;;5097056;28;20077;-63
2021/10/29 01:19:58;;;;;;;42.90;20.25;;;7.10;99.90;;;;;;5096620;28;20062;-63
2021/10/29 01:22:24;;;;;;;104.80;21.55;;;7.00;99.90;;;;;;5096591;28;20067;-63
2021/10/29 01:24:51;;;;;;;39.92;20.42;;;7.00;99.90;;;;;;5096504;28;20033;-62
2021/10/29 01:27:17;;;;;;;43.78;22.70;;;7.00;99.90;;;;;;5096376;28;20056;-63
2021/10/29 01:29:47;;;;;;;202.38;26.23;;;7.10;99.90;;;;;;5096934;28;20034;-62
2021/10/29 01:32:13;;;;;;;86.20;22.33;;;7.00;99.90;;;;;;5097419;28;20024;-62
2021/10/29 01:34:42;;;;;;;59.53;23.70;;;7.00;99.90;;;;;;5097831;28;20024;-62
2021/10/29 01:37:09;;;;;;;151.77;24.05;;;6.90;99.90;;;;;;5098065;28;20084;-63
2021/10/29 01:39:35;;;;;;;90.45;23.38;;;6.90;99.90;;;;;;5094906;28;20020;-62
2021/10/29 01:42:01;;;;;;;71.47;25.05;;;6.90;99.90;;;;;;5094722;28;20497;-64
2021/10/29 01:44:27;;;;;;;123.75;23.75;;;7.20;99.90;;;;;;5096231;28;20055;-62
2021/10/29 01:46:53;;;;;;;90.05;23.88;;;7.20;99.90;;;;;;5096137;28;20081;-62
2021/10/29 01:49:19;;;;;;;101.07;22.97;;;7.20;99.90;;;;;;5095953;28;20102;-62
2021/10/29 01:51:45;;;;;;;74.27;21.23;;;7.30;99.90;;;;;;5095906;28;20035;-62
2021/10/29 01:54:11;;;;;;;69.20;23.27;;;7.20;99.90;;;;;;5095855;28;20032;-63
2021/10/29 01:56:37;;;;;;;81.53;21.70;;;7.20;99.90;;;;;;5095866;28;20043;-62
2021/10/29 01:59:04;;;;;;;79.20;21.00;;;7.10;99.90;;;;;;5095717;28;20027;-62
2021/10/29 02:01:29;;;;;;;90.63;20.80;;;6.90;99.90;;;;;;5096031;28;20027;-62
2021/10/29 02:03:55;;;;;;;128.57;23.17;;;6.70;99.90;;;;;;5095110;28;20028;-63
2021/10/29 02:06:21;;;;;;;63.63;21.23;;;6.60;99.90;;;;;;5095600;28;20046;-63
2021/10/29 02:08:48;;;;;;;49.43;20.77;;;6.60;99.90;;;;;;5095622;28;20107;-62
2021/10/29 02:11:14;;;;;;;49.22;20.60;;;6.60;99.90;;;;;;5095730;28;20055;-62
2021/10/29 02:13:40;;;;;;;78.60;21.70;;;6.70;99.90;;;;;;5095816;28;20016;-63
2021/10/29 02:16:06;;;;;;;66.72;21.92;;;6.70;99.90;;;;;;5095712;28;20028;-63
2021/10/29 02:18:31;;;;;;;144.10;22.25;;;6.70;99.90;;;;;;5095823;28;20070;-62
2021/10/29 02:20:57;;;;;;;43.23;20.40;;;6.60;99.90;;;;;;5095535;28;20073;-63
2021/10/29 02:23:23;;;;;;;47.85;21.60;;;6.70;99.90;;;;;;5095447;28;20525;-62
2021/10/29 02:25:49;;;;;;;43.30;21.27;;;6.80;99.90;;;;;;5094061;28;20059;-62
2021/10/29 02:28:18;;;;;;;68.50;20.48;;;6.70;99.90;;;;;;5096190;28;20034;-62
2021/10/29 02:30:45;;;;;;;62.50;20.30;;;6.60;99.90;;;;;;5095426;28;20107;-63
2021/10/29 02:33:12;;;;;;;50.78;18.83;;;6.60;99.90;;;;;;5095192;28;20020;-62
2021/10/29 02:35:37;;;;;;;74.05;19.55;;;6.60;99.90;;;;;;5095248;28;20020;-62
2021/10/29 02:38:03;;;;;;;107.87;19.87;;;6.60;99.90;;;;;;5095115;28;20103;-64
2021/10/29 02:40:29;;;;;;;84.85;19.48;;;6.50;99.90;;;;;;5093929;28;20024;-62
2021/10/29 02:42:56;;;;;;;60.80;18.23;;;6.30;99.90;;;;;;5095159;28;20035;-63
2021/10/29 02:45:22;;;;;;;82.50;18.92;;;6.30;99.90;;;;;;5094902;28;20055;-63
2021/10/29 02:47:48;;;;;;;64.40;18.15;;;6.20;99.90;;;;;;5093537;28;20375;-63
2021/10/29 02:50:18;;;;;;;55.22;19.17;;;6.20;99.90;;;;;;5093411;28;20020;-63
2021/10/29 02:52:45;;;;;;;50.30;18.02;;;6.20;99.90;;;;;;5094558;28;20101;-63
2021/10/29 02:55:12;;;;;;;55.80;20.48;;;6.20;99.90;;;;;;5094494;28;20024;-62
2021/10/29 02:57:38;;;;;;;39.00;19.05;;;6.20;99.90;;;;;;5094657;28;20091;-62
2021/10/29 03:00:07;;;;;;;41.53;18.00;;;6.30;99.90;;;;;;5094705;28;20020;-63
2021/10/29 03:02:33;;;;;;;38.90;19.52;;;6.40;99.90;;;;;;5094768;28;20385;-63
2021/10/29 03:04:59;;;;;;;40.35;19.63;;;6.60;99.90;;;;;;5094581;28;20108;-64
2021/10/29 03:07:25;;;;;;;29.67;17.42;;;6.60;99.90;;;;;;5093524;28;20101;-63
2021/10/29 03:09:51;;;;;;;42.65;17.73;;;6.80;99.90;;;;;;5094685;28;20066;-62
2021/10/29 03:12:18;;;;;;;26.52;16.02;;;6.80;99.90;;;;;;5094649;28;20032;-63
2021/10/29 03:14:44;;;;;;;94.43;17.08;;;6.80;99.90;;;;;;5093867;28;20016;-62
2021/10/29 03:17:09;;;;;;;196.05;17.92;;;6.80;99.90;;;;;;5093986;28;20027;-63
2021/10/29 03:19:36;;;;;;;63.00;15.90;;;6.60;99.90;;;;;;5094496;28;20043;-63
2021/10/29 03:22:01;;;;;;;32.45;15.88;;;6.50;99.90;;;;;;5094282;28;20478;-62
2021/10/29 03:24:27;;;;;;;31.27;15.75;;;6.50;99.90;;;;;;5094402;28;20039;-63
2021/10/29 03:26:53;;;;;;;38.00;15.40;;;6.50;99.90;;;;;;5094234;28;20469;-63
2021/10/29 03:29:19;;;;;;;22.93;14.00;;;6.70;99.90;;;;;;5094392;28;20266;-61
2021/10/29 03:31:44;;;;;;;29.48;15.93;;;6.80;99.90;;;;;;5094226;28;20032;-63
2021/10/29 03:34:10;;;;;;;23.73;14.90;;;6.80;99.90;;;;;;5094208;28;20509;-63
2021/10/29 03:36:36;;;;;;;34.47;15.25;;;6.70;99.90;;;;;;5093889;28;20051;-60
2021/10/29 03:39:08;;;;;;;34.40;14.60;;;6.70;99.90;;;;;;5094133;28;20541;-62
2021/10/29 03:41:39;;;;;;;40.13;15.27;;;6.70;99.90;;;;;;5093859;28;20035;-61
2021/10/29 03:44:20;;;;;;;24.92;14.63;;;6.70;99.90;;;;;;5093698;28;20081;-60
2021/10/29 03:46:47;;;;;;;24.40;14.98;;;6.60;99.90;;;;;;5094424;28;20482;-62
2021/10/29 03:49:21;;;;;;;21.25;14.15;;;6.70;99.90;;;;;;5093829;28;20024;-62
2021/10/29 03:51:57;;;;;;;27.17;14.38;;;6.70;99.90;;;;;;5093848;28;20020;-61
2021/10/29 03:54:30;;;;;;;26.15;15.27;;;6.80;99.90;;;;;;5092162;28;20016;-61
2021/10/29 03:57:09;;;;;;;31.25;15.35;;;6.80;99.90;;;;;;5093629;28;20122;-63
2021/10/29 03:59:35;;;;;;;28.88;14.48;;;6.70;99.90;;;;;;5094099;28;20091;-64
2021/10/29 04:02:02;;;;;;;25.00;14.83;;;6.80;99.90;;;;;;5093657;28;20052;-64
2021/10/29 04:04:28;;;;;;;48.13;15.27;;;6.90;99.90;;;;;;5093979;28;20307;-63
2021/10/29 04:06:54;;;;;;;37.27;14.33;;;7.10;99.90;;;;;;5093944;28;20028;-63
2021/10/29 04:09:20;;;;;;;62.85;15.25;;;7.00;99.90;;;;;;5094062;28;20028;-67
2021/10/29 04:11:46;;;;;;;41.50;16.87;;;6.90;99.90;;;;;;5093976;28;20028;-66
2021/10/29 04:14:12;;;;;;;53.57;14.63;;;6.90;99.90;;;;;;5092214;28;20107;-68
2021/10/29 04:16:39;;;;;;;59.42;15.95;;;6.80;99.90;;;;;;5093580;28;20261;-67
2021/10/29 04:19:06;;;;;;;32.60;15.70;;;6.60;99.90;;;;;;5093396;28;20497;-65
2021/10/29 04:21:32;;;;;;;54.47;16.38;;;6.50;99.90;;;;;;5093336;28;20073;-68
2021/10/29 04:23:58;;;;;;;89.78;17.45;;;6.50;99.90;;;;;;5093928;28;20020;-62
2021/10/29 04:26:24;;;;;;;95.07;17.30;;;6.50;99.90;;;;;;5093532;28;20036;-62
2021/10/29 04:28:55;;;;;;;134.50;18.50;;;6.50;99.90;;;;;;5093065;28;20100;-63
2021/10/29 04:31:24;;;;;;;88.43;18.55;;;6.40;99.90;;;;;;5093092;28;20104;-62
2021/10/29 04:33:51;;;;;;;97.53;19.52;;;6.30;99.90;;;;;;5092986;28;20016;-65
2021/10/29 04:36:18;;;;;;;162.95;21.00;;;6.20;99.90;;;;;;5094004;28;20025;-64
2021/10/29 04:38:47;;;;;;;;;;;6.10;99.90;;;;;;5093454;28;20016;-63
2021/10/29 04:41:13;;;;;;;61.90;18.13;;;6.10;99.90;;;;;;5093246;28;19916;-63
2021/10/29 04:43:40;;;;;;;65.88;20.42;;;6.00;99.90;;;;;;5093602;28;20035;-63
2021/10/29 04:46:06;;;;;;;73.18;20.83;;;6.10;99.90;;;;;;5094176;28;20099;-62
2021/10/29 04:48:33;;;;;;;95.05;21.33;;;6.20;99.90;;;;;;5093003;28;20028;-63
2021/10/29 04:50:59;;;;;;;;;;;6.40;99.90;;;;;;5092030;28;20032;-61
2021/10/29 04:53:25;;;;;;;35.80;18.67;;;6.60;99.90;;;;;;5092192;28;19904;-63
2021/10/29 04:55:51;;;;;;;75.85;17.40;;;6.70;99.90;;;;;;5094161;28;20024;-63
2021/10/29 04:58:17;;;;;;;;;;;6.60;99.90;;;;;;5094589;28;20060;-64
2021/10/29 05:00:42;;;;;;;159.88;19.75;;;6.50;99.90;;;;;;5093095;28;19911;-67
2021/10/29 05:03:08;;;;;;;52.27;17.47;;;6.50;99.90;;;;;;5091338;28;20069;-64
2021/10/29 05:05:35;;;;;;;45.85;17.20;;;6.40;99.90;;;;;;5092876;28;20023;-64
2021/10/29 05:08:02;;;;;;;33.78;16.40;;;6.50;99.90;;;;;;5093398;28;20032;-67
2021/10/29 05:10:28;;;;;;;35.22;15.60;;;6.50;99.90;;;;;;5094521;28;20012;-67
2021/10/29 05:12:54;;;;;;;28.95;15.15;;;6.50;99.90;;;;;;5094307;28;20035;-68
2021/10/29 05:15:20;;;;;;;42.40;15.17;;;6.50;99.90;;;;;;5094666;28;20026;-68
2021/10/29 05:17:47;;;;;;;43.92;14.43;;;6.40;99.90;;;;;;5093660;28;20020;-66
2021/10/29 05:20:14;;;;;;;27.08;14.25;;;6.40;99.90;;;;;;5094090;28;20021;-66
2021/10/29 05:22:40;;;;;;;33.55;15.10;;;6.30;99.90;;;;;;5093043;28;20074;-66
2021/10/29 05:25:07;;;;;;;120.60;15.63;;;6.40;99.90;;;;;;5091791;28;20032;-66
2021/10/29 05:27:33;;;;;;;47.75;15.73;;;6.30;99.90;;;;;;5092868;28;20111;-66
2021/10/29 05:29:59;;;;;;;33.85;15.27;;;6.30;99.90;;;;;;5093797;28;20058;-65
2021/10/29 05:32:24;;;;;;;32.33;13.40;;;6.30;99.90;;;;;;5093999;28;20126;-66
2021/10/29 05:34:50;;;;;;;30.73;13.53;;;6.40;99.90;;;;;;5093521;28;20027;-67
2021/10/29 05:37:15;;;;;;;60.10;14.10;;;6.40;99.90;;;;;;5093482;28;20334;-66
2021/10/29 05:39:41;;;;;;;53.40;14.23;;;6.40;99.90;;;;;;5096305;28;20466;-66
2021/10/29 05:42:07;;;;;;;28.60;12.53;;;6.30;99.90;;;;;;5097118;28;20040;-66
2021/10/29 05:44:32;;;;;;;53.00;13.80;;;6.40;99.90;;;;;;5097050;28;20024;-64
2021/10/29 05:46:58;;;;;;;40.03;14.03;;;6.50;99.90;;;;;;5096951;28;20466;-66
2021/10/29 05:49:24;;;;;;;58.40;13.00;;;6.40;99.90;;;;;;5096769;28;20035;-66
2021/10/29 05:51:51;;;;;;;60.80;13.17;;;6.30;99.90;;;;;;5096801;28;20032;-67
2021/10/29 05:57:01;;;;;;;35.53;12.80;;;6.00;99.90;;;;;;5096753;28;20016;-66
2021/10/29 05:59:27;;;;;;;46.53;13.43;;;5.80;99.90;;;;;;5094964;28;20096;-66
2021/10/29 06:01:53;;;;;;;39.17;13.60;;;5.80;99.90;;;;;;5094736;28;20024;-65
2021/10/29 06:04:19;;;;;;;38.27;13.43;;;5.70;99.90;;;;;;5096206;28;20115;-66
2021/10/29 06:06:45;;;;;;;26.17;10.93;;;5.70;99.90;;;;;;5095876;28;20077;-67
2021/10/29 06:09:11;;;;;;;24.00;10.30;;;5.70;99.90;;;;;;5096189;28;20032;-66
2021/10/29 06:11:37;;;;;;;15.60;9.13;;;5.70;99.90;;;;;;5096423;28;20121;-67
2021/10/29 06:14:04;;;;;;;14.67;9.03;;;5.70;99.90;;;;;;5095664;28;20044;-68
2021/10/29 06:16:30;;;;;;;13.70;8.63;;;5.70;99.90;;;;;;5096255;28;20646;-65
2021/10/29 06:18:56;;;;;;;32.10;8.40;;;5.60;99.90;;;;;;5095755;28;20044;-66
2021/10/29 06:21:32;;;;;;;10.75;7.22;;;5.60;99.90;;;;;;5095437;28;20035;-67
2021/10/29 06:24:08;;;;;;;16.73;8.20;;;5.60;99.90;;;;;;5095302;28;20016;-66
2021/10/29 06:26:45;;;;;;;16.60;8.23;;;5.70;99.90;;;;;;5095720;28;20428;-65
2021/10/29 06:29:11;;;;;;;11.85;8.10;;;5.70;99.90;;;;;;5095609;28;20035;-68
2021/10/29 06:31:37;;;;;;;39.97;7.97;;;5.70;99.90;;;;;;5095082;28;20028;-66
2021/10/29 06:34:03;;;;;;;10.80;8.02;;;5.50;99.90;;;;;;5095051;28;20024;-69
2021/10/29 06:36:29;;;;;;;26.25;8.45;;;5.50;99.90;;;;;;5095262;28;20035;-67
2021/10/29 06:38:57;;;;;;;11.93;7.70;;;5.50;99.90;;;;;;5095085;28;20483;-67
2021/10/29 06:41:24;;;;;;;10.77;7.10;;;5.40;99.90;;;;;;5094582;28;20032;-67
2021/10/29 06:44:22;;;;;;;45.35;9.45;;;5.50;99.90;;;;;;5095120;28;20024;-67
2021/10/29 06:59:58;;;;;;;28.52;8.95;;;6.20;99.90;;;;;;5094892;28;20027;-66
2021/10/29 07:03:07;;;;;;;19.02;8.02;;;6.00;99.90;;;;;;5094539;28;20439;-67
2021/10/29 07:40:41;;;;;;;15.60;10.18;;;5.90;99.90;;;;;;5093492;28;20035;-66
2021/10/29 07:43:09;;;;;;;17.92;10.07;;;5.80;99.90;;;;;;5092396;28;20120;-68
2021/10/29 07:45:35;;;;;;;14.00;10.43;;;5.80;99.90;;;;;;5093004;28;20027;-68
2021/10/29 07:48:01;;;;;;;13.87;9.87;;;5.80;99.90;;;;;;5093799;28;20020;-66
2021/10/29 07:50:27;;;;;;;18.15;11.50;;;5.80;99.90;;;;;;5093914;28;20281;-65
2021/10/29 07:52:55;;;;;;;18.30;10.95;;;5.70;99.90;;;;;;5093256;28;20028;-66
2021/10/29 07:55:22;;;;;;;16.48;11.07;;;5.80;99.90;;;;;;5092065;28;20584;-65
2021/10/29 07:57:49;;;;;;;17.73;11.68;;;5.80;99.90;;;;;;5093339;28;20394;-66
2021/10/29 08:00:19;;;;;;;;;;;5.90;99.90;;;;;;5093964;28;20012;-66
2021/10/29 08:02:46;;;;;;;22.35;12.60;;;5.90;99.90;;;;;;5092826;28;20388;-66
2021/10/29 08:05:12;;;;;;;17.50;12.45;;;6.00;99.90;;;;;;5092283;28;20032;-66
2021/10/29 08:07:38;;;;;;;18.48;11.45;;;6.10;99.90;;;;;;5092162;28;20479;-66
2021/10/29 08:10:06;;;;;;;16.00;11.33;;;6.20;99.90;;;;;;5093765;28;20026;-66
2021/10/29 08:12:33;;;;;;;18.42;11.90;;;6.20;99.90;;;;;;5093028;28;20028;-66
2021/10/29 08:15:01;;;;;;;16.50;11.70;;;6.40;99.90;;;;;;5093267;28;20030;-68
2021/10/29 08:17:27;;;;;;;15.85;11.35;;;6.60;99.90;;;;;;5092116;28;20116;-65
2021/10/29 08:19:52;;;;;;;15.77;10.17;;;6.90;99.90;;;;;;5093154;28;20048;-65
2021/10/29 08:22:18;;;;;;;14.47;10.20;;;7.20;99.90;;;;;;5093352;28;20032;-66
2021/10/29 08:24:44;;;;;;;15.87;10.10;;;7.30;99.90;;;;;;5093362;28;20036;-65
2021/10/29 08:27:10;;;;;;;17.57;10.37;;;7.30;99.90;;;;;;5093397;28;20479;-65
2021/10/29 08:29:37;;;;;;;15.18;10.48;;;7.40;99.90;;;;;;5093334;28;20268;-65
2021/10/29 08:32:03;;;;;;;15.27;11.02;;;7.40;99.90;;;;;;5092964;28;20439;-66
2021/10/29 08:34:30;;;;;;;16.80;10.75;;;7.30;99.90;;;;;;5091870;28;20028;-65
2021/10/29 08:36:57;;;;;;;13.95;10.50;;;7.30;99.90;;;;;;5093139;28;20046;-66
2021/10/29 08:39:28;;;;;;;16.30;11.27;;;7.30;99.90;;;;;;5093012;28;20020;-65
2021/10/29 08:41:54;;;;;;;17.63;11.60;;;7.30;99.90;;;;;;5093267;28;20032;-64
2021/10/29 08:44:20;;;;;;;16.00;11.13;;;7.60;99.90;;;;;;5092491;28;20047;-65
2021/10/29 08:46:46;;;;;;;14.93;10.97;;;7.70;99.90;;;;;;5093946;28;20536;-65
2021/10/29 08:49:12;;;;;;;17.37;11.20;;;7.80;99.90;;;;;;5093131;28;20035;-64
2021/10/29 08:51:38;;;;;;;;;;;7.80;99.90;;;;;;5092080;28;20024;-65
2021/10/29 08:54:05;;;;;;;14.98;10.75;;;7.80;99.90;;;;;;5092961;28;19958;-65
2021/10/29 08:56:32;;;;;;;16.75;10.95;;;7.80;99.90;;;;;;5092676;28;20024;-65
2021/10/29 08:59:18;;;;;;;13.30;10.20;;;7.80;99.90;;;;;;5092756;28;20099;-65
2021/10/29 09:32:19;;;;;;;37.63;20.20;;;8.20;99.90;;;;;;5096651;28;20480;-64
2021/10/29 09:35:00;;;;;;;27.17;15.52;;;8.30;99.90;;;;;;5096972;28;20062;-64
2021/10/29 09:37:35;;;;;;;22.58;14.98;;;8.30;99.90;;;;;;5096804;28;20020;-66
2021/10/29 09:40:06;;;;;;;16.23;10.70;;;8.30;99.90;;;;;;5095671;28;20039;-65
2021/10/29 09:42:39;;;;;;;15.57;10.63;;;8.70;99.90;;;;;;5096363;28;20186;-65
2021/10/29 09:45:17;;;;;;;16.20;11.38;;;8.70;99.90;;;;;;5094985;28;20024;-64
2021/10/29 09:47:49;;;;;;;15.68;11.07;;;8.60;99.90;;;;;;5096387;28;20035;-64
2021/10/29 09:50:31;;;;;;;17.50;10.98;;;8.60;99.90;;;;;;5096472;28;20024;-64
2021/10/29 09:55:53;;;;;;;13.60;9.18;;;9.30;99.90;;;;;;5095729;28;20409;-65
2021/10/29 09:58:19;;;;;;;13.50;9.75;;;9.70;99.90;;;;;;5098683;28;20093;-64
2021/10/29 10:00:46;;;;;;;14.05;9.55;;;10.20;99.90;;;;;;5096000;28;20016;-64
2021/10/29 10:03:19;;;;;;;15.07;10.35;;;10.30;99.90;;;;;;5096074;28;20111;-65
2021/10/29 10:05:46;;;;;;;14.05;10.85;;;10.30;99.90;;;;;;5094500;28;20020;-67
2021/10/29 10:08:12;;;;;;;14.90;10.38;;;10.50;99.90;;;;;;5095524;28;20407;-64
2021/10/29 10:10:40;;;;;;;20.63;12.30;;;10.40;99.90;;;;;;5095393;28;20116;-64
2021/10/29 10:13:06;;;;;;;15.88;11.15;;;9.90;99.90;;;;;;5095098;28;20073;-65
2021/10/29 10:15:35;;;;;;;16.73;10.93;;;10.00;99.90;;;;;;5095181;28;20044;-65
2021/10/29 10:18:01;;;;;;;14.48;10.50;;;10.20;99.90;;;;;;5095487;28;20035;-65
2021/10/29 10:20:29;;;;;;;12.85;10.65;;;11.30;99.90;;;;;;5094996;28;20031;-66
2021/10/29 10:22:56;;;;;;;14.48;10.77;;;12.30;99.90;;;;;;5094991;28;20031;-64
2021/10/29 10:25:41;;;;;;;13.52;10.07;;;13.80;99.90;;;;;;5095128;28;20366;-65
2021/10/29 10:28:39;;;;;;;15.20;9.73;;;15.70;99.90;;;;;;5094996;28;20020;-65
2021/10/29 10:42:53;;;;;;;11.00;9.57;;;21.80;85.10;;;;;;5094774;28;20406;-65
2021/10/29 10:45:45;;;;;;;10.23;8.63;;;21.10;84.40;;;;;;5094353;28;20024;-65
2021/10/29 10:48:12;;;;;;;11.40;10.15;;;20.30;86.90;;;;;;5094016;28;20054;-67
2021/10/29 10:50:46;;;;;;;12.05;8.93;;;18.30;89.50;;;;;;5094522;28;20016;-67
2021/10/29 10:53:23;;;;;;;13.50;10.32;;;17.10;92.50;;;;;;5093097;28;20060;-67
2021/10/29 10:56:00;;;;;;;11.77;10.15;;;16.20;94.10;;;;;;5093049;28;20612;-68
2021/10/29 11:01:43;;;;;;;10.80;9.68;;;14.40;97.50;;;;;;5094705;28;20028;-69
2021/10/29 11:10:12;;;;;;;16.02;12.43;;;12.60;99.90;;;;;;5092362;28;20371;-68
2021/10/29 11:12:41;;;;;;;16.00;11.90;;;12.30;99.90;;;;;;5092679;28;20028;-68
2021/10/29 11:15:09;;;;;;;15.20;12.02;;;12.00;99.90;;;;;;5092801;28;20069;-69
2021/10/29 11:17:54;;;;;;;14.73;11.50;;;11.80;99.90;;;;;;5094137;28;20541;-68
2021/10/29 11:20:49;;;;;;;16.85;12.32;;;11.60;99.90;;;;;;5094268;28;20028;-66
2021/10/29 11:23:25;;;;;;;17.05;12.30;;;11.20;99.90;;;;;;5093803;28;20016;-66
2021/10/29 11:26:05;;;;;;;16.70;12.35;;;11.10;99.90;;;;;;5093754;28;20024;-67
2021/10/29 11:28:47;;;;;;;16.98;12.20;;;11.10;99.90;;;;;;5094048;28;20054;-66
2021/10/29 11:31:18;;;;;;;18.65;13.23;;;11.10;99.90;;;;;;5093897;28;20139;-68
2021/10/29 11:33:49;;;;;;;16.35;12.15;;;11.00;99.90;;;;;;5092287;28;20044;-66
2021/10/29 11:36:18;;;;;;;16.02;11.88;;;11.10;99.90;;;;;;5093133;28;20565;-67
2021/10/29 11:38:46;;;;;;;19.23;12.68;;;11.00;99.90;;;;;;5093614;28;20026;-68
2021/10/29 11:41:19;;;;;;;20.83;13.32;;;10.80;99.90;;;;;;5093357;28;20497;-67
2021/10/29 11:43:45;;;;;;;19.70;13.27;;;10.70;99.90;;;;;;5092128;28;20138;-67
2021/10/29 11:46:14;;;;;;;19.53;13.50;;;10.70;99.90;;;;;;5093765;28;20423;-67
2021/10/29 11:48:58;;;;;;;17.83;13.05;;;10.70;99.90;;;;;;5093351;28;20071;-67
2021/10/29 11:51:24;;;;;;;23.92;13.73;;;10.70;99.90;;;;;;5092065;28;20039;-66
2021/10/29 12:07:24;;;;;;;21.50;14.40;;;10.70;99.90;;;;;;5093516;28;20058;-68
2021/10/29 12:09:54;;;;;;;21.73;14.27;;;10.70;99.90;;;;;;5093237;28;20102;-68
2021/10/29 12:12:25;;;;;;;21.63;14.52;;;10.70;99.90;;;;;;5092781;28;20047;-68
2021/10/29 12:14:55;;;;;;;20.45;14.13;;;10.60;99.90;;;;;;5093148;28;20069;-67
2021/10/29 12:17:26;;;;;;;22.45;14.40;;;10.50;99.90;;;;;;5093288;28;20529;-69
2021/10/29 12:19:56;;;;;;;23.25;15.00;;;10.70;99.90;;;;;;5093904;28;20024;-67
2021/10/29 12:24:57;;;;;;;23.73;15.15;;;10.90;99.90;;;;;;5093581;28;20066;-67
2021/10/29 12:27:36;;;;;;;23.17;14.23;;;11.00;99.90;;;;;;5092809;28;20028;-66
2021/10/29 12:30:11;;;;;;;21.50;14.07;;;11.10;99.90;;;;;;5093186;28;20024;-67
2021/10/29 12:59:05;;;;;;;25.63;15.07;;;11.20;99.90;;;;;;5096824;28;20549;-68
2021/10/29 13:04:06;;;;;;;25.17;15.52;;;11.30;99.90;;;;;;5096874;28;20086;-68
2021/10/29 13:06:38;;;;;;;25.08;16.60;;;11.30;99.90;;;;;;5096909;28;20397;-69
2021/10/29 13:09:14;;;;;;;23.67;15.48;;;11.40;99.90;;;;;;5096642;28;20024;-68
2021/10/29 13:11:50;;;;;;;26.25;16.65;;;11.40;99.90;;;;;;5096551;28;20028;-68
2021/10/29 13:14:23;;;;;;;27.55;16.58;;;11.40;99.90;;;;;;5096383;28;20024;-69
2021/10/29 13:16:49;;;;;;;25.70;16.65;;;11.40;99.90;;;;;;5096744;28;20054;-69
2021/10/29 13:35:20;;;;;;;31.70;18.75;;;11.10;99.90;;;;;;5097427;28;20543;-68
2021/10/29 13:54:24;;;;;;;27.17;17.05;;;11.30;99.90;;;;;;5097226;28;20470;-68
2021/10/29 14:02:36;;;;;;;24.55;15.63;;;11.30;99.90;;;;;;5096948;28;20491;-68
2021/10/29 14:29:36;;;;;;;28.10;16.98;;;11.70;99.90;;;;;;5095503;28;20032;-70
2021/10/29 14:32:09;;;;;;;26.70;15.93;;;11.70;99.90;;;;;;5093685;28;20526;-69
2021/10/29 14:34:39;;;;;;;27.10;16.17;;;11.70;99.90;;;;;;5095549;28;20019;-69
2021/10/29 14:45:04;;;;;;;26.27;16.47;;;11.80;99.90;;;;;;5095475;28;20020;-68
2021/10/29 15:25:11;;;;;;;25.10;16.27;;;11.90;99.90;;;;;;5095658;28;20035;-68
2021/10/29 15:27:49;;;;;;;27.08;16.30;;;11.90;99.90;;;;;;5094155;28;20032;-68
2021/10/29 15:30:23;;;;;;;20.55;14.73;;;11.90;99.90;;;;;;5094297;28;20020;-66
2021/10/29 15:33:41;;;;;;;28.95;16.40;;;11.80;99.90;;;;;;5094227;28;20413;-67
2021/10/29 15:46:44;;;;;;;27.75;17.98;;;11.70;99.90;;;;;;5094072;28;20020;-67
2021/10/29 15:51:44;;;;;;;28.83;18.58;;;11.60;99.90;;;;;;5093816;28;20020;-66
2021/10/29 15:54:11;;;;;;;29.00;20.60;;;11.50;99.90;;;;;;5092247;28;20031;-67
2021/10/29 15:56:41;;;;;;;30.30;19.15;;;11.50;99.90;;;;;;5093536;28;20019;-67
2021/10/29 15:59:19;;;;;;;30.95;19.25;;;11.40;99.90;;;;;;5093374;28;20126;-67
2021/10/29 16:18:09;;;;;;;33.83;21.25;;;10.90;99.90;;;;;;5093843;28;20026;-67
2021/10/29 16:20:34;;;;;;;31.17;19.60;;;10.90;99.90;;;;;;5093493;28;20024;-67
2021/10/29 16:23:02;;;;;;;36.17;22.77;;;10.80;99.90;;;;;;5092996;28;20023;-68
2021/10/29 16:25:34;;;;;;;36.53;22.33;;;10.70;99.90;;;;;;5093229;28;20032;-68
2021/10/29 16:28:03;;;;;;;38.60;21.65;;;10.70;99.90;;;;;;5091992;28;20024;-67
2021/10/29 16:30:31;;;;;;;35.92;21.65;;;10.70;99.90;;;;;;5091803;28;20052;-68
2021/10/29 16:35:24;;;;;;;43.08;23.83;;;10.50;99.90;;;;;;5097068;28;20031;-68
2021/10/29 16:37:50;;;;;;;36.17;23.45;;;10.50;99.90;;;;;;5091840;28;20031;-68
2021/10/29 16:40:16;;;;;;;40.10;24.33;;;10.40;99.90;;;;;;5093031;28;20040;-68
2021/10/29 16:42:43;;;;;;;36.28;23.98;;;10.40;99.90;;;;;;5092935;28;20032;-68
2021/10/29 16:45:13;;;;;;;41.03;24.85;;;10.30;99.90;;;;;;5093294;28;20097;-68
2021/10/29 16:47:41;;;;;;;40.58;24.42;;;10.20;99.90;;;;;;5116770;22;20062;-70
2021/10/29 16:50:07;;;;;;;39.67;24.13;;;10.20;99.90;;;;;;5097275;28;20470;-70
2021/10/29 16:52:33;;;;;;;38.53;24.00;;;10.10;99.90;;;;;;5100355;28;20020;-71
2021/10/29 16:54:58;;;;;;;40.57;25.23;;;10.00;99.90;;;;;;5087503;28;20114;-69
2021/10/29 16:57:24;;;;;;;44.03;24.67;;;10.00;99.90;;;;;;5096947;28;20154;-70
2021/10/29 16:59:50;;;;;;;42.40;24.80;;;10.00;99.90;;;;;;5093761;28;20367;-71
2021/10/29 17:02:16;;;;;;;43.30;23.20;;;9.90;99.90;;;;;;5094780;28;20024;-71
2021/10/29 17:04:41;;;;;;;42.00;24.15;;;9.90;99.90;;;;;;5094195;28;20039;-71
2021/10/29 17:07:07;;;;;;;48.37;24.63;;;9.80;99.90;;;;;;5093526;28;20047;-71
2021/10/29 17:09:34;;;;;;;43.70;23.70;;;9.70;99.90;;;;;;5092732;28;20063;-71
2021/10/29 17:12:00;;;;;;;39.50;22.67;;;9.70;99.90;;;;;;5094189;28;20542;-71
2021/10/29 17:14:27;;;;;;;44.15;24.33;;;9.70;99.90;;;;;;5094217;28;20027;-71
2021/10/29 17:16:54;;;;;;;42.00;23.90;;;9.60;99.90;;;;;;5094172;28;20490;-70
2021/10/29 17:19:21;;;;;;;40.42;22.83;;;9.60;99.90;;;;;;5094807;28;20020;-70
2021/10/29 17:21:47;;;;;;;44.90;26.35;;;9.50;99.90;;;;;;5097065;28;20016;-70
2021/10/29 17:24:12;;;;;;;44.37;24.23;;;9.50;99.90;;;;;;5096603;28;20367;-70
2021/10/29 17:26:38;;;;;;;49.57;25.50;;;9.40;99.90;;;;;;5092968;28;20276;-70
2021/10/29 17:29:04;;;;;;;92.63;41.10;;;9.40;99.90;;;;;;5093255;28;20353;-70
2021/10/29 17:31:29;;;;;;;52.33;26.57;;;9.40;99.90;;;;;;5095433;28;20020;-71
2021/10/29 17:33:55;;;;;;;47.97;24.87;;;9.30;99.90;;;;;;5094111;28;20095;-70